sensor_id;sensor_type;location;lat;lon;timestamp;temperature;humidity
64062;DHT22;50308;47.438;-1.528;2023-01-05T00:01:08;14.20;94.10
64062;DHT22;50308;47.438;-1.528;2023-01-05T00:03:34;14.20;93.50
64062;DHT22;50308;47.438;-1.528;2023-01-05T00:06:10;14.20;94.00
64062;DHT22;50308;47.438;-1.528;2023-01-05T00:08:36;14.20;93.70
64062;DHT22;50308;47.438;-1.528;2023-01-05T00:11:05;14.20;93.80
64062;DHT22;50308;47.438;-1.528;2023-01-05T00:13:49;14.20;93.60
64062;DHT22;50308;47.438;-1.528;2023-01-05T00:16:34;14.20;93.80
64062;DHT22;50308;47.438;-1.528;2023-01-05T00:19:18;14.20;93.50
64062;DHT22;50308;47.438;-1.528;2023-01-05T00:22:07;14.20;93.50
64062;DHT22;50308;47.438;-1.528;2023-01-05T00:24:51;14.20;93.70
64062;DHT22;50308;47.438;-1.528;2023-01-05T00:27:17;14.20;94.10
64062;DHT22;50308;47.438;-1.528;2023-01-05T00:29:42;14.20;93.70
64062;DHT22;50308;47.438;-1.528;2023-01-05T00:32:08;14.20;93.80
64062;DHT22;50308;47.438;-1.528;2023-01-05T00:34:33;14.20;93.70
64062;DHT22;50308;47.438;-1.528;2023-01-05T00:36:59;14.20;93.70
64062;DHT22;50308;47.438;-1.528;2023-01-05T00:39:24;14.20;93.50
64062;DHT22;50308;47.438;-1.528;2023-01-05T00:41:50;14.20;93.50
64062;DHT22;50308;47.438;-1.528;2023-01-05T00:44:16;14.30;93.70
64062;DHT22;50308;47.438;-1.528;2023-01-05T00:46:41;14.20;93.50
64062;DHT22;50308;47.438;-1.528;2023-01-05T00:49:07;14.20;93.50
64062;DHT22;50308;47.438;-1.528;2023-01-05T00:51:32;14.20;93.70
64062;DHT22;50308;47.438;-1.528;2023-01-05T00:53:58;14.20;93.50
64062;DHT22;50308;47.438;-1.528;2023-01-05T00:56:23;14.20;93.50
64062;DHT22;50308;47.438;-1.528;2023-01-05T00:58:51;14.20;93.50
64062;DHT22;50308;47.438;-1.528;2023-01-05T01:01:17;14.20;93.50
64062;DHT22;50308;47.438;-1.528;2023-01-05T01:03:42;14.30;93.40
64062;DHT22;50308;47.438;-1.528;2023-01-05T01:06:08;14.20;93.30
64062;DHT22;50308;47.438;-1.528;2023-01-05T01:08:33;14.20;93.40
64062;DHT22;50308;47.438;-1.528;2023-01-05T01:11:03;14.20;93.50
64062;DHT22;50308;47.438;-1.528;2023-01-05T01:13:28;14.30;93.40
64062;DHT22;50308;47.438;-1.528;2023-01-05T01:15:54;14.20;93.50
64062;DHT22;50308;47.438;-1.528;2023-01-05T01:18:19;14.20;93.50
64062;DHT22;50308;47.438;-1.528;2023-01-05T01:20:45;14.20;93.40
64062;DHT22;50308;47.438;-1.528;2023-01-05T01:23:10;14.30;93.50
64062;DHT22;50308;47.438;-1.528;2023-01-05T01:25:36;14.20;93.50
64062;DHT22;50308;47.438;-1.528;2023-01-05T01:28:02;14.30;93.50
64062;DHT22;50308;47.438;-1.528;2023-01-05T01:30:27;14.20;93.40
64062;DHT22;50308;47.438;-1.528;2023-01-05T01:32:53;14.30;93.60
64062;DHT22;50308;47.438;-1.528;2023-01-05T01:35:18;14.20;93.50
64062;DHT22;50308;47.438;-1.528;2023-01-05T01:37:44;14.20;93.50
64062;DHT22;50308;47.438;-1.528;2023-01-05T01:40:10;14.20;93.50
64062;DHT22;50308;47.438;-1.528;2023-01-05T01:42:35;14.30;93.30
64062;DHT22;50308;47.438;-1.528;2023-01-05T01:45:05;14.20;93.40
64062;DHT22;50308;47.438;-1.528;2023-01-05T01:47:43;14.20;93.40
64062;DHT22;50308;47.438;-1.528;2023-01-05T01:50:14;14.30;93.50
64062;DHT22;50308;47.438;-1.528;2023-01-05T01:52:40;14.20;93.50
64062;DHT22;50308;47.438;-1.528;2023-01-05T01:55:07;14.20;93.50
64062;DHT22;50308;47.438;-1.528;2023-01-05T01:57:32;14.20;93.40
64062;DHT22;50308;47.438;-1.528;2023-01-05T01:59:59;14.30;93.50
64062;DHT22;50308;47.438;-1.528;2023-01-05T02:02:26;14.20;93.60
64062;DHT22;50308;47.438;-1.528;2023-01-05T02:04:52;14.20;93.90
64062;DHT22;50308;47.438;-1.528;2023-01-05T02:07:18;14.20;93.50
64062;DHT22;50308;47.438;-1.528;2023-01-05T02:09:44;14.20;93.80
64062;DHT22;50308;47.438;-1.528;2023-01-05T02:32:33;14.20;93.80
64062;DHT22;50308;47.438;-1.528;2023-01-05T02:40:04;14.20;93.30
64062;DHT22;50308;47.438;-1.528;2023-01-05T02:42:30;14.20;93.30
64062;DHT22;50308;47.438;-1.528;2023-01-05T02:44:59;14.20;93.40
64062;DHT22;50308;47.438;-1.528;2023-01-05T02:52:19;14.20;93.30
64062;DHT22;50308;47.438;-1.528;2023-01-05T02:54:46;14.20;93.40
64062;DHT22;50308;47.438;-1.528;2023-01-05T02:57:14;14.30;93.30
64062;DHT22;50308;47.438;-1.528;2023-01-05T02:59:48;14.20;93.30
64062;DHT22;50308;47.438;-1.528;2023-01-05T03:02:18;14.20;93.30
64062;DHT22;50308;47.438;-1.528;2023-01-05T03:04:49;14.30;93.40
64062;DHT22;50308;47.438;-1.528;2023-01-05T03:07:17;14.20;93.30
64062;DHT22;50308;47.438;-1.528;2023-01-05T03:09:43;14.30;93.30
64062;DHT22;50308;47.438;-1.528;2023-01-05T03:15:07;14.20;93.30
64062;DHT22;50308;47.438;-1.528;2023-01-05T03:17:44;14.30;93.30
64062;DHT22;50308;47.438;-1.528;2023-01-05T03:20:15;14.30;93.40
64062;DHT22;50308;47.438;-1.528;2023-01-05T03:22:41;14.30;93.10
64062;DHT22;50308;47.438;-1.528;2023-01-05T03:25:26;14.20;93.30
64062;DHT22;50308;47.438;-1.528;2023-01-05T03:28:22;14.20;93.30
64062;DHT22;50308;47.438;-1.528;2023-01-05T03:36:52;14.30;93.30
64062;DHT22;50308;47.438;-1.528;2023-01-05T03:39:20;14.30;93.40
64062;DHT22;50308;47.438;-1.528;2023-01-05T03:41:50;14.30;93.20
64062;DHT22;50308;47.438;-1.528;2023-01-05T03:44:16;14.30;93.10
64062;DHT22;50308;47.438;-1.528;2023-01-05T03:46:42;14.30;93.20
64062;DHT22;50308;47.438;-1.528;2023-01-05T03:49:07;14.30;93.20
64062;DHT22;50308;47.438;-1.528;2023-01-05T03:51:33;14.30;93.30
64062;DHT22;50308;47.438;-1.528;2023-01-05T03:53:59;14.30;93.20
64062;DHT22;50308;47.438;-1.528;2023-01-05T03:56:24;14.30;93.30
64062;DHT22;50308;47.438;-1.528;2023-01-05T03:58:50;14.30;93.30
64062;DHT22;50308;47.438;-1.528;2023-01-05T04:01:15;14.30;93.20
64062;DHT22;50308;47.438;-1.528;2023-01-05T04:03:41;14.30;93.20
64062;DHT22;50308;47.438;-1.528;2023-01-05T04:06:06;14.30;93.10
64062;DHT22;50308;47.438;-1.528;2023-01-05T04:08:32;14.30;93.50
64062;DHT22;50308;47.438;-1.528;2023-01-05T04:11:08;14.30;93.30
64062;DHT22;50308;47.438;-1.528;2023-01-05T04:13:34;14.30;93.20
64062;DHT22;50308;47.438;-1.528;2023-01-05T04:16:00;14.30;93.40
64062;DHT22;50308;47.438;-1.528;2023-01-05T04:18:25;14.30;93.40
64062;DHT22;50308;47.438;-1.528;2023-01-05T04:20:51;14.30;93.50
64062;DHT22;50308;47.438;-1.528;2023-01-05T04:23:16;14.30;93.20
64062;DHT22;50308;47.438;-1.528;2023-01-05T04:25:42;14.30;93.20
64062;DHT22;50308;47.438;-1.528;2023-01-05T04:28:07;14.30;93.30
64062;DHT22;50308;47.438;-1.528;2023-01-05T04:30:33;14.30;93.30
64062;DHT22;50308;47.438;-1.528;2023-01-05T04:32:58;14.30;93.30
64062;DHT22;50308;47.438;-1.528;2023-01-05T04:35:24;14.30;93.30
64062;DHT22;50308;47.438;-1.528;2023-01-05T04:37:49;14.30;93.20
64062;DHT22;50308;47.438;-1.528;2023-01-05T04:40:15;14.30;93.30
64062;DHT22;50308;47.438;-1.528;2023-01-05T04:42:41;14.30;93.30
64062;DHT22;50308;47.438;-1.528;2023-01-05T04:45:06;14.30;93.20
64062;DHT22;50308;47.438;-1.528;2023-01-05T04:47:32;14.30;93.30
64062;DHT22;50308;47.438;-1.528;2023-01-05T04:49:58;14.30;93.30
64062;DHT22;50308;47.438;-1.528;2023-01-05T04:52:23;14.30;93.20
64062;DHT22;50308;47.438;-1.528;2023-01-05T04:54:49;14.30;93.30
64062;DHT22;50308;47.438;-1.528;2023-01-05T04:57:14;14.30;93.20
64062;DHT22;50308;47.438;-1.528;2023-01-05T04:59:40;14.30;93.30
64062;DHT22;50308;47.438;-1.528;2023-01-05T05:02:05;14.30;93.30
64062;DHT22;50308;47.438;-1.528;2023-01-05T05:04:31;14.30;93.20
64062;DHT22;50308;47.438;-1.528;2023-01-05T05:06:56;14.30;93.20
64062;DHT22;50308;47.438;-1.528;2023-01-05T05:09:22;14.30;93.20
64062;DHT22;50308;47.438;-1.528;2023-01-05T05:11:47;14.30;93.20
64062;DHT22;50308;47.438;-1.528;2023-01-05T05:14:13;14.30;93.20
64062;DHT22;50308;47.438;-1.528;2023-01-05T05:16:39;14.30;93.20
64062;DHT22;50308;47.438;-1.528;2023-01-05T05:19:04;14.30;93.20
64062;DHT22;50308;47.438;-1.528;2023-01-05T05:21:30;14.30;93.20
64062;DHT22;50308;47.438;-1.528;2023-01-05T05:23:55;14.30;93.10
64062;DHT22;50308;47.438;-1.528;2023-01-05T05:26:21;14.30;93.10
64062;DHT22;50308;47.438;-1.528;2023-01-05T05:28:46;14.30;93.10
64062;DHT22;50308;47.438;-1.528;2023-01-05T05:31:12;14.30;93.20
64062;DHT22;50308;47.438;-1.528;2023-01-05T05:33:38;14.30;93.10
64062;DHT22;50308;47.438;-1.528;2023-01-05T05:36:04;14.30;93.10
64062;DHT22;50308;47.438;-1.528;2023-01-05T05:38:30;14.30;93.00
64062;DHT22;50308;47.438;-1.528;2023-01-05T05:40:55;14.30;93.10
64062;DHT22;50308;47.438;-1.528;2023-01-05T05:43:21;14.30;93.10
64062;DHT22;50308;47.438;-1.528;2023-01-05T05:45:46;14.30;93.00
64062;DHT22;50308;47.438;-1.528;2023-01-05T05:48:12;14.30;93.10
64062;DHT22;50308;47.438;-1.528;2023-01-05T05:50:37;14.20;93.40
64062;DHT22;50308;47.438;-1.528;2023-01-05T05:53:03;14.20;93.60
64062;DHT22;50308;47.438;-1.528;2023-01-05T05:55:28;14.20;93.70
64062;DHT22;50308;47.438;-1.528;2023-01-05T05:57:54;14.20;93.40
64062;DHT22;50308;47.438;-1.528;2023-01-05T06:00:19;14.20;93.40
64062;DHT22;50308;47.438;-1.528;2023-01-05T06:02:45;14.20;93.40
64062;DHT22;50308;47.438;-1.528;2023-01-05T06:05:10;14.20;93.20
64062;DHT22;50308;47.438;-1.528;2023-01-05T06:07:36;14.20;93.30
64062;DHT22;50308;47.438;-1.528;2023-01-05T06:10:03;14.20;93.20
64062;DHT22;50308;47.438;-1.528;2023-01-05T06:12:28;14.20;93.20
64062;DHT22;50308;47.438;-1.528;2023-01-05T06:14:54;14.10;93.20
64062;DHT22;50308;47.438;-1.528;2023-01-05T06:17:19;14.10;93.30
64062;DHT22;50308;47.438;-1.528;2023-01-05T06:19:45;14.10;93.20
64062;DHT22;50308;47.438;-1.528;2023-01-05T06:22:10;14.10;93.40
64062;DHT22;50308;47.438;-1.528;2023-01-05T06:24:36;14.10;93.10
64062;DHT22;50308;47.438;-1.528;2023-01-05T06:27:02;14.10;93.10
64062;DHT22;50308;47.438;-1.528;2023-01-05T06:29:27;14.10;93.10
64062;DHT22;50308;47.438;-1.528;2023-01-05T06:31:53;14.10;93.20
64062;DHT22;50308;47.438;-1.528;2023-01-05T06:34:18;14.10;93.00
64062;DHT22;50308;47.438;-1.528;2023-01-05T06:36:44;14.10;93.20
64062;DHT22;50308;47.438;-1.528;2023-01-05T06:39:09;14.10;93.20
64062;DHT22;50308;47.438;-1.528;2023-01-05T06:41:35;14.10;93.30
64062;DHT22;50308;47.438;-1.528;2023-01-05T06:44:00;14.10;93.20
64062;DHT22;50308;47.438;-1.528;2023-01-05T06:46:26;14.10;93.20
64062;DHT22;50308;47.438;-1.528;2023-01-05T06:48:51;14.10;93.10
64062;DHT22;50308;47.438;-1.528;2023-01-05T06:51:17;14.00;93.00
64062;DHT22;50308;47.438;-1.528;2023-01-05T06:53:43;14.10;93.00
64062;DHT22;50308;47.438;-1.528;2023-01-05T06:56:08;14.10;93.00
64062;DHT22;50308;47.438;-1.528;2023-01-05T06:58:34;14.10;93.00
64062;DHT22;50308;47.438;-1.528;2023-01-05T07:00:59;14.10;92.90
64062;DHT22;50308;47.438;-1.528;2023-01-05T07:03:25;14.10;92.90
64062;DHT22;50308;47.438;-1.528;2023-01-05T07:05:51;14.10;92.90
64062;DHT22;50308;47.438;-1.528;2023-01-05T07:08:16;14.10;92.90
64062;DHT22;50308;47.438;-1.528;2023-01-05T07:10:42;14.10;92.90
64062;DHT22;50308;47.438;-1.528;2023-01-05T07:13:07;14.10;92.80
64062;DHT22;50308;47.438;-1.528;2023-01-05T07:15:33;14.10;92.80
64062;DHT22;50308;47.438;-1.528;2023-01-05T07:17:58;14.10;92.80
64062;DHT22;50308;47.438;-1.528;2023-01-05T07:20:24;14.10;92.80
64062;DHT22;50308;47.438;-1.528;2023-01-05T07:22:49;14.10;92.80
64062;DHT22;50308;47.438;-1.528;2023-01-05T07:25:15;14.10;92.80
64062;DHT22;50308;47.438;-1.528;2023-01-05T07:27:40;14.10;92.80
64062;DHT22;50308;47.438;-1.528;2023-01-05T07:30:06;14.10;92.80
64062;DHT22;50308;47.438;-1.528;2023-01-05T07:32:32;14.10;92.80
64062;DHT22;50308;47.438;-1.528;2023-01-05T07:34:57;14.10;92.80
64062;DHT22;50308;47.438;-1.528;2023-01-05T07:37:23;14.10;92.80
64062;DHT22;50308;47.438;-1.528;2023-01-05T07:39:49;14.10;92.80
64062;DHT22;50308;47.438;-1.528;2023-01-05T07:42:14;14.10;92.80
64062;DHT22;50308;47.438;-1.528;2023-01-05T07:44:40;14.00;92.70
64062;DHT22;50308;47.438;-1.528;2023-01-05T07:47:06;14.00;92.80
64062;DHT22;50308;47.438;-1.528;2023-01-05T07:49:31;14.00;92.80
64062;DHT22;50308;47.438;-1.528;2023-01-05T07:51:57;14.00;92.80
64062;DHT22;50308;47.438;-1.528;2023-01-05T07:54:22;14.00;92.80
64062;DHT22;50308;47.438;-1.528;2023-01-05T07:56:48;14.10;92.80
64062;DHT22;50308;47.438;-1.528;2023-01-05T07:59:14;14.10;92.70
64062;DHT22;50308;47.438;-1.528;2023-01-05T08:01:39;14.10;92.70
64062;DHT22;50308;47.438;-1.528;2023-01-05T08:04:05;14.10;92.80
64062;DHT22;50308;47.438;-1.528;2023-01-05T08:06:30;14.10;92.70
64062;DHT22;50308;47.438;-1.528;2023-01-05T08:08:56;14.10;92.70
64062;DHT22;50308;47.438;-1.528;2023-01-05T08:11:22;14.10;92.70
64062;DHT22;50308;47.438;-1.528;2023-01-05T08:13:47;14.00;92.60
64062;DHT22;50308;47.438;-1.528;2023-01-05T08:16:30;14.00;92.50
64062;DHT22;50308;47.438;-1.528;2023-01-05T08:18:56;14.10;92.50
64062;DHT22;50308;47.438;-1.528;2023-01-05T08:21:22;14.10;92.50
64062;DHT22;50308;47.438;-1.528;2023-01-05T08:23:47;14.10;92.50
64062;DHT22;50308;47.438;-1.528;2023-01-05T08:26:18;14.10;92.60
64062;DHT22;50308;47.438;-1.528;2023-01-05T08:28:44;14.10;92.60
64062;DHT22;50308;47.438;-1.528;2023-01-05T08:31:10;14.10;92.70
64062;DHT22;50308;47.438;-1.528;2023-01-05T08:33:36;14.00;92.60
64062;DHT22;50308;47.438;-1.528;2023-01-05T08:36:06;14.00;92.70
64062;DHT22;50308;47.438;-1.528;2023-01-05T08:38:32;14.10;92.60
64062;DHT22;50308;47.438;-1.528;2023-01-05T08:40:57;14.10;92.70
64062;DHT22;50308;47.438;-1.528;2023-01-05T08:43:24;14.10;92.60
64062;DHT22;50308;47.438;-1.528;2023-01-05T08:45:50;14.10;92.70
64062;DHT22;50308;47.438;-1.528;2023-01-05T08:48:15;14.10;92.70
64062;DHT22;50308;47.438;-1.528;2023-01-05T08:50:41;14.10;92.70
64062;DHT22;50308;47.438;-1.528;2023-01-05T08:53:07;14.10;92.80
64062;DHT22;50308;47.438;-1.528;2023-01-05T08:55:32;14.10;92.80
64062;DHT22;50308;47.438;-1.528;2023-01-05T08:57:58;14.10;92.70
64062;DHT22;50308;47.438;-1.528;2023-01-05T09:00:23;14.10;92.80
64062;DHT22;50308;47.438;-1.528;2023-01-05T09:02:49;14.10;92.90
64062;DHT22;50308;47.438;-1.528;2023-01-05T09:05:15;14.10;92.80
64062;DHT22;50308;47.438;-1.528;2023-01-05T09:07:40;14.10;92.70
64062;DHT22;50308;47.438;-1.528;2023-01-05T09:10:06;14.10;92.70
64062;DHT22;50308;47.438;-1.528;2023-01-05T09:12:35;14.10;92.90
64062;DHT22;50308;47.438;-1.528;2023-01-05T09:15:01;14.10;92.80
64062;DHT22;50308;47.438;-1.528;2023-01-05T09:17:26;14.10;92.80
64062;DHT22;50308;47.438;-1.528;2023-01-05T09:19:52;14.10;92.70
64062;DHT22;50308;47.438;-1.528;2023-01-05T09:22:18;14.20;92.80
64062;DHT22;50308;47.438;-1.528;2023-01-05T09:24:43;14.20;92.70
64062;DHT22;50308;47.438;-1.528;2023-01-05T09:27:09;14.20;92.50
64062;DHT22;50308;47.438;-1.528;2023-01-05T09:29:34;14.20;92.60
64062;DHT22;50308;47.438;-1.528;2023-01-05T09:32:00;14.20;92.70
64062;DHT22;50308;47.438;-1.528;2023-01-05T09:34:26;14.20;92.80
64062;DHT22;50308;47.438;-1.528;2023-01-05T09:36:51;14.20;92.70
64062;DHT22;50308;47.438;-1.528;2023-01-05T09:39:17;14.20;92.70
64062;DHT22;50308;47.438;-1.528;2023-01-05T09:41:52;14.20;92.90
64062;DHT22;50308;47.438;-1.528;2023-01-05T09:46:50;14.20;92.70
64062;DHT22;50308;47.438;-1.528;2023-01-05T09:49:17;14.20;92.70
64062;DHT22;50308;47.438;-1.528;2023-01-05T09:51:44;14.20;92.60
64062;DHT22;50308;47.438;-1.528;2023-01-05T09:54:19;14.20;92.50
64062;DHT22;50308;47.438;-1.528;2023-01-05T09:56:46;14.20;92.50
64062;DHT22;50308;47.438;-1.528;2023-01-05T09:59:32;14.20;92.40
64062;DHT22;50308;47.438;-1.528;2023-01-05T10:01:59;14.20;92.40
64062;DHT22;50308;47.438;-1.528;2023-01-05T10:04:27;14.30;92.70
64062;DHT22;50308;47.438;-1.528;2023-01-05T10:06:54;14.30;92.40
64062;DHT22;50308;47.438;-1.528;2023-01-05T10:09:22;14.20;92.20
64062;DHT22;50308;47.438;-1.528;2023-01-05T10:12:33;14.30;92.40
64062;DHT22;50308;47.438;-1.528;2023-01-05T10:15:00;14.30;92.40
64062;DHT22;50308;47.438;-1.528;2023-01-05T10:17:31;14.30;92.50
64062;DHT22;50308;47.438;-1.528;2023-01-05T10:19:57;14.30;92.40
64062;DHT22;50308;47.438;-1.528;2023-01-05T10:27:17;14.30;92.40
64062;DHT22;50308;47.438;-1.528;2023-01-05T10:29:47;14.30;92.30
64062;DHT22;50308;47.438;-1.528;2023-01-05T10:39:54;14.30;92.30
64062;DHT22;50308;47.438;-1.528;2023-01-05T10:42:26;14.30;92.10
64062;DHT22;50308;47.438;-1.528;2023-01-05T10:44:54;14.30;92.00
64062;DHT22;50308;47.438;-1.528;2023-01-05T10:47:21;14.30;92.00
64062;DHT22;50308;47.438;-1.528;2023-01-05T10:49:48;14.30;92.00
64062;DHT22;50308;47.438;-1.528;2023-01-05T10:52:15;14.30;92.10
64062;DHT22;50308;47.438;-1.528;2023-01-05T10:54:46;14.30;92.00
64062;DHT22;50308;47.438;-1.528;2023-01-05T11:00:37;14.30;92.20
64062;DHT22;50308;47.438;-1.528;2023-01-05T11:02:40;14.30;92.30
64062;DHT22;50308;47.438;-1.528;2023-01-05T11:07:32;14.30;92.00
64062;DHT22;50308;47.438;-1.528;2023-01-05T11:10:20;14.30;92.20
64062;DHT22;50308;47.438;-1.528;2023-01-05T11:12:49;14.30;92.00
64062;DHT22;50308;47.438;-1.528;2023-01-05T11:15:15;14.30;92.10
64062;DHT22;50308;47.438;-1.528;2023-01-05T11:17:43;14.30;92.20
64062;DHT22;50308;47.438;-1.528;2023-01-05T11:20:16;14.30;92.00
64062;DHT22;50308;47.438;-1.528;2023-01-05T11:22:42;14.30;91.90
64062;DHT22;50308;47.438;-1.528;2023-01-05T11:25:12;14.30;92.00
64062;DHT22;50308;47.438;-1.528;2023-01-05T11:27:38;14.30;92.00
64062;DHT22;50308;47.438;-1.528;2023-01-05T11:30:16;14.30;92.00
64062;DHT22;50308;47.438;-1.528;2023-01-05T11:32:44;14.40;91.90
64062;DHT22;50308;47.438;-1.528;2023-01-05T11:35:17;14.30;92.00
64062;DHT22;50308;47.438;-1.528;2023-01-05T11:37:44;14.30;92.30
64062;DHT22;50308;47.438;-1.528;2023-01-05T11:40:16;14.30;91.80
64062;DHT22;50308;47.438;-1.528;2023-01-05T11:42:42;14.30;91.90
64062;DHT22;50308;47.438;-1.528;2023-01-05T11:45:22;14.40;91.80
64062;DHT22;50308;47.438;-1.528;2023-01-05T11:50:22;14.40;91.80
64062;DHT22;50308;47.438;-1.528;2023-01-05T11:52:55;14.40;91.60
64062;DHT22;50308;47.438;-1.528;2023-01-05T11:55:32;14.30;91.60
64062;DHT22;50308;47.438;-1.528;2023-01-05T11:58:08;14.30;91.70
64062;DHT22;50308;47.438;-1.528;2023-01-05T12:05:57;14.40;91.60
64062;DHT22;50308;47.438;-1.528;2023-01-05T12:08:29;14.30;91.60
64062;DHT22;50308;47.438;-1.528;2023-01-05T12:10:59;14.40;91.70
64062;DHT22;50308;47.438;-1.528;2023-01-05T12:13:54;14.30;91.60
64062;DHT22;50308;47.438;-1.528;2023-01-05T12:21:25;14.40;91.50
64062;DHT22;50308;47.438;-1.528;2023-01-05T12:26:27;14.40;91.60
64062;DHT22;50308;47.438;-1.528;2023-01-05T12:31:59;14.40;91.40
64062;DHT22;50308;47.438;-1.528;2023-01-05T12:37:05;14.40;91.10
64062;DHT22;50308;47.438;-1.528;2023-01-05T12:49:50;14.40;91.10
64062;DHT22;50308;47.438;-1.528;2023-01-05T12:57:28;14.40;91.00
64062;DHT22;50308;47.438;-1.528;2023-01-05T12:59:59;14.40;91.00
64062;DHT22;50308;47.438;-1.528;2023-01-05T13:07:28;14.30;90.20
64062;DHT22;50308;47.438;-1.528;2023-01-05T13:09:56;14.30;90.20
64062;DHT22;50308;47.438;-1.528;2023-01-05T13:12:23;14.30;90.20
64062;DHT22;50308;47.438;-1.528;2023-01-05T13:14:59;14.30;90.50
64062;DHT22;50308;47.438;-1.528;2023-01-05T13:17:31;14.30;90.00
64062;DHT22;50308;47.438;-1.528;2023-01-05T13:22:43;14.30;90.20
64062;DHT22;50308;47.438;-1.528;2023-01-05T13:25:13;14.30;90.50
64062;DHT22;50308;47.438;-1.528;2023-01-05T13:27:41;14.40;90.70
64062;DHT22;50308;47.438;-1.528;2023-01-05T13:30:07;14.30;90.60
64062;DHT22;50308;47.438;-1.528;2023-01-05T13:53:19;14.40;90.90
64062;DHT22;50308;47.438;-1.528;2023-01-05T13:55:47;14.40;90.80
64062;DHT22;50308;47.438;-1.528;2023-01-05T14:00:52;14.40;90.90
64062;DHT22;50308;47.438;-1.528;2023-01-05T14:03:20;14.40;90.80
64062;DHT22;50308;47.438;-1.528;2023-01-05T14:08:48;14.40;90.70
64062;DHT22;50308;47.438;-1.528;2023-01-05T14:13:42;14.40;90.80
64062;DHT22;50308;47.438;-1.528;2023-01-05T14:18:52;14.40;90.70
64062;DHT22;50308;47.438;-1.528;2023-01-05T14:21:42;14.40;90.90
64062;DHT22;50308;47.438;-1.528;2023-01-05T14:24:29;14.40;90.80
64062;DHT22;50308;47.438;-1.528;2023-01-05T14:29:56;14.40;90.90
64062;DHT22;50308;47.438;-1.528;2023-01-05T14:34:58;14.40;91.00
64062;DHT22;50308;47.438;-1.528;2023-01-05T14:37:31;14.40;90.90
64062;DHT22;50308;47.438;-1.528;2023-01-05T14:39:58;14.40;91.00
64062;DHT22;50308;47.438;-1.528;2023-01-05T14:42:27;14.40;90.90
64062;DHT22;50308;47.438;-1.528;2023-01-05T14:50:05;14.40;90.90
64062;DHT22;50308;47.438;-1.528;2023-01-05T14:55:37;14.40;90.70
64062;DHT22;50308;47.438;-1.528;2023-01-05T14:58:02;14.40;90.70
64062;DHT22;50308;47.438;-1.528;2023-01-05T15:00:34;14.40;90.80
64062;DHT22;50308;47.438;-1.528;2023-01-05T15:05:36;14.40;90.80
64062;DHT22;50308;47.438;-1.528;2023-01-05T15:10:54;14.40;90.60
64062;DHT22;50308;47.438;-1.528;2023-01-05T15:13:45;14.40;90.60
64062;DHT22;50308;47.438;-1.528;2023-01-05T15:19:21;14.40;90.50
64062;DHT22;50308;47.438;-1.528;2023-01-05T15:21:53;14.40;90.40
64062;DHT22;50308;47.438;-1.528;2023-01-05T15:32:05;14.30;90.20
64062;DHT22;50308;47.438;-1.528;2023-01-05T15:37:32;14.40;90.20
64062;DHT22;50308;47.438;-1.528;2023-01-05T15:39:58;14.30;90.10
64062;DHT22;50308;47.438;-1.528;2023-01-05T15:44:57;14.30;90.50
64062;DHT22;50308;47.438;-1.528;2023-01-05T15:47:24;14.30;90.20
64062;DHT22;50308;47.438;-1.528;2023-01-05T15:49:53;14.30;90.20
64062;DHT22;50308;47.438;-1.528;2023-01-05T15:52:38;14.30;90.20
64062;DHT22;50308;47.438;-1.528;2023-01-05T15:57:35;14.30;90.60
64062;DHT22;50308;47.438;-1.528;2023-01-05T16:00:01;14.30;90.20
64062;DHT22;50308;47.438;-1.528;2023-01-05T16:02:28;14.30;90.30
64062;DHT22;50308;47.438;-1.528;2023-01-05T16:05:10;14.30;90.30
64062;DHT22;50308;47.438;-1.528;2023-01-05T16:07:40;14.30;90.30
64062;DHT22;50308;47.438;-1.528;2023-01-05T16:10:14;14.30;90.30
64062;DHT22;50308;47.438;-1.528;2023-01-05T16:12:40;14.30;90.50
64062;DHT22;50308;47.438;-1.528;2023-01-05T16:15:10;14.30;90.50
64062;DHT22;50308;47.438;-1.528;2023-01-05T16:17:36;14.30;90.30
64062;DHT22;50308;47.438;-1.528;2023-01-05T16:20:04;14.30;90.30
64062;DHT22;50308;47.438;-1.528;2023-01-05T16:27:26;14.20;90.50
64062;DHT22;50308;47.438;-1.528;2023-01-05T16:29:51;14.20;90.30
64062;DHT22;50308;47.438;-1.528;2023-01-05T16:32:31;14.20;90.40
64062;DHT22;50308;47.438;-1.528;2023-01-05T16:37:40;14.20;90.50
64062;DHT22;50308;47.438;-1.528;2023-01-05T16:40:17;14.20;90.50
64062;DHT22;50308;47.438;-1.528;2023-01-05T16:42:44;14.20;90.60
64062;DHT22;50308;47.438;-1.528;2023-01-05T16:45:17;14.20;90.60
64062;DHT22;50308;47.438;-1.528;2023-01-05T16:47:43;14.20;90.40
64062;DHT22;50308;47.438;-1.528;2023-01-05T16:52:54;14.20;90.50
64062;DHT22;50308;47.438;-1.528;2023-01-05T16:55:27;14.20;90.50
64062;DHT22;50308;47.438;-1.528;2023-01-05T16:57:53;14.20;90.40
64062;DHT22;50308;47.438;-1.528;2023-01-05T17:03:00;14.20;90.70
64062;DHT22;50308;47.438;-1.528;2023-01-05T17:05:27;14.20;90.60
64062;DHT22;50308;47.438;-1.528;2023-01-05T17:10:28;14.20;90.80
64062;DHT22;50308;47.438;-1.528;2023-01-05T17:15:30;14.20;90.70
64062;DHT22;50308;47.438;-1.528;2023-01-05T17:17:56;14.20;90.70
64062;DHT22;50308;47.438;-1.528;2023-01-05T17:20:26;14.20;90.70
64062;DHT22;50308;47.438;-1.528;2023-01-05T17:22:53;14.20;90.90
64062;DHT22;50308;47.438;-1.528;2023-01-05T17:25:19;14.20;91.60
64062;DHT22;50308;47.438;-1.528;2023-01-05T17:27:44;14.20;91.20
64062;DHT22;50308;47.438;-1.528;2023-01-05T17:30:18;14.20;91.30
64062;DHT22;50308;47.438;-1.528;2023-01-05T17:32:44;14.20;90.70
64062;DHT22;50308;47.438;-1.528;2023-01-05T17:35:09;14.20;90.70
64062;DHT22;50308;47.438;-1.528;2023-01-05T17:37:35;14.20;90.90
64062;DHT22;50308;47.438;-1.528;2023-01-05T17:40:01;14.20;90.80
64062;DHT22;50308;47.438;-1.528;2023-01-05T17:42:27;14.20;91.00
64062;DHT22;50308;47.438;-1.528;2023-01-05T17:45:18;14.20;90.80
64062;DHT22;50308;47.438;-1.528;2023-01-05T17:47:44;14.10;90.60
64062;DHT22;50308;47.438;-1.528;2023-01-05T17:50:14;14.10;90.90
64062;DHT22;50308;47.438;-1.528;2023-01-05T17:52:39;14.10;91.00
64062;DHT22;50308;47.438;-1.528;2023-01-05T17:55:05;14.10;90.50
64062;DHT22;50308;47.438;-1.528;2023-01-05T17:57:31;14.10;90.70
64062;DHT22;50308;47.438;-1.528;2023-01-05T17:59:56;14.10;91.10
64062;DHT22;50308;47.438;-1.528;2023-01-05T18:02:22;14.10;90.70
64062;DHT22;50308;47.438;-1.528;2023-01-05T18:04:47;14.10;90.90
64062;DHT22;50308;47.438;-1.528;2023-01-05T18:07:13;14.10;90.90
64062;DHT22;50308;47.438;-1.528;2023-01-05T18:09:38;14.10;90.80
64062;DHT22;50308;47.438;-1.528;2023-01-05T18:12:04;14.10;90.70
64062;DHT22;50308;47.438;-1.528;2023-01-05T18:14:29;14.10;90.70
64062;DHT22;50308;47.438;-1.528;2023-01-05T18:16:55;14.10;91.10
64062;DHT22;50308;47.438;-1.528;2023-01-05T18:19:20;14.10;90.80
64062;DHT22;50308;47.438;-1.528;2023-01-05T18:21:46;14.10;91.00
64062;DHT22;50308;47.438;-1.528;2023-01-05T18:24:12;14.10;91.20
64062;DHT22;50308;47.438;-1.528;2023-01-05T18:26:37;14.10;91.10
64062;DHT22;50308;47.438;-1.528;2023-01-05T18:29:03;14.10;90.60
64062;DHT22;50308;47.438;-1.528;2023-01-05T18:31:28;14.10;91.10